sensor_id;sensor_type;location;lat;lon;timestamp;pressure;altitude;pressure_sealevel;temperature;humidity
47082;BME280;33066;49.296;14.470;2023-04-07T00:01:15;97088.60;;;7.96;31.53
47082;BME280;33066;49.296;14.470;2023-04-07T00:03:41;97086.64;;;7.92;31.57
47082;BME280;33066;49.296;14.470;2023-04-07T00:06:06;97086.96;;;7.76;31.50
47082;BME280;33066;49.296;14.470;2023-04-07T00:08:32;97087.01;;;8.06;31.49
47082;BME280;33066;49.296;14.470;2023-04-07T00:10:57;97085.90;;;7.57;31.45
47082;BME280;33066;49.296;14.470;2023-04-07T00:13:23;97084.02;;;8.06;31.39
47082;BME280;33066;49.296;14.470;2023-04-07T00:15:48;97085.95;;;7.97;31.39
47082;BME280;33066;49.296;14.470;2023-04-07T00:18:14;97083.14;;;7.88;31.42
47082;BME280;33066;49.296;14.470;2023-04-07T00:20:39;97079.44;;;7.75;31.63
47082;BME280;33066;49.296;14.470;2023-04-07T00:23:05;97077.39;;;7.56;31.79
47082;BME280;33066;49.296;14.470;2023-04-07T00:25:30;97077.73;;;7.36;31.96
47082;BME280;33066;49.296;14.470;2023-04-07T00:27:56;97076.83;;;7.21;31.83
47082;BME280;33066;49.296;14.470;2023-04-07T00:30:21;97078.48;;;7.02;31.82
47082;BME280;33066;49.296;14.470;2023-04-07T00:32:47;97080.55;;;6.95;31.83
47082;BME280;33066;49.296;14.470;2023-04-07T00:35:12;97078.71;;;7.09;31.88
47082;BME280;33066;49.296;14.470;2023-04-07T00:37:38;97073.67;;;7.16;31.96
47082;BME280;33066;49.296;14.470;2023-04-07T00:40:04;97062.30;;;6.98;31.93
47082;BME280;33066;49.296;14.470;2023-04-07T00:42:29;97062.39;;;6.93;32.06
47082;BME280;33066;49.296;14.470;2023-04-07T00:44:55;97057.99;;;7.11;32.13
47082;BME280;33066;49.296;14.470;2023-04-07T00:47:20;97058.10;;;6.85;32.38
47082;BME280;33066;49.296;14.470;2023-04-07T00:49:46;97058.21;;;7.01;32.45
47082;BME280;33066;49.296;14.470;2023-04-07T00:52:12;97055.40;;;6.75;32.50
47082;BME280;33066;49.296;14.470;2023-04-07T00:54:37;97056.00;;;6.75;32.51
47082;BME280;33066;49.296;14.470;2023-04-07T00:57:03;97051.73;;;7.06;32.33
47082;BME280;33066;49.296;14.470;2023-04-07T00:59:29;97049.12;;;6.68;32.51
47082;BME280;33066;49.296;14.470;2023-04-07T01:02:01;97046.03;;;6.75;32.77
47082;BME280;33066;49.296;14.470;2023-04-07T01:04:28;97039.83;;;6.63;33.01
47082;BME280;33066;49.296;14.470;2023-04-07T01:06:49;97036.29;;;6.63;32.99
47082;BME280;33066;49.296;14.470;2023-04-07T01:09:15;97035.05;;;6.56;33.08
47082;BME280;33066;49.296;14.470;2023-04-07T01:11:40;97032.49;;;6.56;33.05
47082;BME280;33066;49.296;14.470;2023-04-07T01:14:00;97033.05;;;6.29;33.11
47082;BME280;33066;49.296;14.470;2023-04-07T01:16:29;97033.81;;;6.57;33.10
47082;BME280;33066;49.296;14.470;2023-04-07T01:18:54;97031.59;;;6.61;33.03
47082;BME280;33066;49.296;14.470;2023-04-07T01:21:17;97027.68;;;6.55;33.03
47082;BME280;33066;49.296;14.470;2023-04-07T01:23:50;97027.60;;;6.25;33.07
47082;BME280;33066;49.296;14.470;2023-04-07T01:26:17;97026.71;;;6.45;32.94
47082;BME280;33066;49.296;14.470;2023-04-07T01:30:59;97030.27;;;6.66;32.73
47082;BME280;33066;49.296;14.470;2023-04-07T01:33:24;97029.26;;;6.67;32.80
47082;BME280;33066;49.296;14.470;2023-04-07T01:35:50;97027.39;;;6.67;33.01
47082;BME280;33066;49.296;14.470;2023-04-07T01:38:15;97027.30;;;6.56;33.04
47082;BME280;33066;49.296;14.470;2023-04-07T01:40:41;97031.43;;;6.72;33.23
47082;BME280;33066;49.296;14.470;2023-04-07T01:43:07;97031.55;;;6.46;33.30
47082;BME280;33066;49.296;14.470;2023-04-07T01:45:33;97030.47;;;6.42;33.35
47082;BME280;33066;49.296;14.470;2023-04-07T01:47:59;97029.08;;;6.38;33.46
47082;BME280;33066;49.296;14.470;2023-04-07T01:50:24;97030.54;;;6.34;33.44
47082;BME280;33066;49.296;14.470;2023-04-07T01:52:49;97031.58;;;6.10;33.37
47082;BME280;33066;49.296;14.470;2023-04-07T01:55:14;97028.26;;;6.32;33.33
47082;BME280;33066;49.296;14.470;2023-04-07T01:57:39;97028.04;;;6.38;33.39
47082;BME280;33066;49.296;14.470;2023-04-07T02:00:06;97024.51;;;6.33;33.49
47082;BME280;33066;49.296;14.470;2023-04-07T02:02:33;97022.61;;;6.30;33.56
47082;BME280;33066;49.296;14.470;2023-04-07T02:04:59;97025.44;;;6.27;33.48
47082;BME280;33066;49.296;14.470;2023-04-07T02:07:26;97024.06;;;6.25;33.40
47082;BME280;33066;49.296;14.470;2023-04-07T02:09:47;97021.47;;;6.23;33.39
47082;BME280;33066;49.296;14.470;2023-04-07T02:12:13;97020.19;;;6.21;33.47
47082;BME280;33066;49.296;14.470;2023-04-07T02:14:38;97017.65;;;6.21;33.52
47082;BME280;33066;49.296;14.470;2023-04-07T02:17:03;97018.04;;;6.22;33.41
47082;BME280;33066;49.296;14.470;2023-04-07T02:19:29;97018.13;;;6.06;33.34
47082;BME280;33066;49.296;14.470;2023-04-07T02:21:54;97018.05;;;6.28;33.36
47082;BME280;33066;49.296;14.470;2023-04-07T02:24:20;97015.77;;;6.32;33.37
47082;BME280;33066;49.296;14.470;2023-04-07T02:26:45;97012.91;;;6.36;33.38
47082;BME280;33066;49.296;14.470;2023-04-07T02:29:10;97011.49;;;6.26;33.53
47082;BME280;33066;49.296;14.470;2023-04-07T02:31:36;97010.31;;;6.18;33.58
47082;BME280;33066;49.296;14.470;2023-04-07T02:34:01;97012.09;;;6.30;33.43
47082;BME280;33066;49.296;14.470;2023-04-07T02:36:27;97013.44;;;6.43;33.65
47082;BME280;33066;49.296;14.470;2023-04-07T02:38:53;97013.62;;;6.18;33.71
47082;BME280;33066;49.296;14.470;2023-04-07T02:41:18;97009.70;;;6.48;33.64
47082;BME280;33066;49.296;14.470;2023-04-07T02:43:43;97004.93;;;6.44;33.66
47082;BME280;33066;49.296;14.470;2023-04-07T02:46:09;97004.30;;;6.24;33.69
47082;BME280;33066;49.296;14.470;2023-04-07T02:48:34;97003.77;;;6.69;33.71
47082;BME280;33066;49.296;14.470;2023-04-07T02:51:00;97006.20;;;6.34;33.71
47082;BME280;33066;49.296;14.470;2023-04-07T02:53:25;97005.26;;;6.39;33.65
47082;BME280;33066;49.296;14.470;2023-04-07T02:55:50;97002.84;;;6.43;33.67
47082;BME280;33066;49.296;14.470;2023-04-07T02:58:16;96998.43;;;6.49;33.72
47082;BME280;33066;49.296;14.470;2023-04-07T03:00:41;96997.40;;;6.35;33.90
47082;BME280;33066;49.296;14.470;2023-04-07T03:03:07;96993.73;;;6.41;34.11
47082;BME280;33066;49.296;14.470;2023-04-07T03:05:33;96989.04;;;6.35;34.25
47082;BME280;33066;49.296;14.470;2023-04-07T03:07:58;96981.88;;;6.67;34.11
47082;BME280;33066;49.296;14.470;2023-04-07T03:13:00;96972.50;;;5.98;33.04
47082;BME280;33066;49.296;14.470;2023-04-07T03:15:25;96968.63;;;7.76;32.47
47082;BME280;33066;49.296;14.470;2023-04-07T03:17:50;96967.79;;;7.11;32.98
47082;BME280;33066;49.296;14.470;2023-04-07T03:20:16;96962.82;;;6.97;33.01
47082;BME280;33066;49.296;14.470;2023-04-07T03:22:41;96961.65;;;6.87;33.75
47082;BME280;33066;49.296;14.470;2023-04-07T03:25:06;96962.30;;;6.97;33.47
47082;BME280;33066;49.296;14.470;2023-04-07T03:27:31;96964.06;;;6.84;33.65
47082;BME280;33066;49.296;14.470;2023-04-07T03:29:57;96965.12;;;6.86;33.61
47082;BME280;33066;49.296;14.470;2023-04-07T03:32:22;96965.49;;;6.94;33.97
47082;BME280;33066;49.296;14.470;2023-04-07T03:34:47;96965.62;;;7.13;34.01
47082;BME280;33066;49.296;14.470;2023-04-07T03:37:13;96962.39;;;6.98;34.25
47082;BME280;33066;49.296;14.470;2023-04-07T03:39:38;96965.07;;;6.87;34.04
47082;BME280;33066;49.296;14.470;2023-04-07T03:42:03;96968.65;;;6.61;34.10
47082;BME280;33066;49.296;14.470;2023-04-07T03:44:29;96968.81;;;6.72;34.53
47082;BME280;33066;49.296;14.470;2023-04-07T03:46:54;96966.80;;;6.61;35.02
47082;BME280;33066;49.296;14.470;2023-04-07T03:49:20;96968.77;;;6.72;34.72
47082;BME280;33066;49.296;14.470;2023-04-07T03:51:45;96971.56;;;6.72;34.94
47082;BME280;33066;49.296;14.470;2023-04-07T03:54:10;96971.85;;;6.59;34.79
47082;BME280;33066;49.296;14.470;2023-04-07T03:56:36;96975.06;;;6.61;34.69
47082;BME280;33066;49.296;14.470;2023-04-07T03:59:02;96972.67;;;6.93;34.54
47082;BME280;33066;49.296;14.470;2023-04-07T04:01:28;96968.82;;;7.07;34.28
47082;BME280;33066;49.296;14.470;2023-04-07T04:03:53;96974.91;;;6.88;33.84
47082;BME280;33066;49.296;14.470;2023-04-07T04:06:18;96973.67;;;6.90;33.73
47082;BME280;33066;49.296;14.470;2023-04-07T04:08:44;96973.18;;;6.66;33.59
47082;BME280;33066;49.296;14.470;2023-04-07T04:11:09;96975.42;;;6.83;33.69
47082;BME280;33066;49.296;14.470;2023-04-07T04:13:35;96974.00;;;6.88;33.64
47082;BME280;33066;49.296;14.470;2023-04-07T04:16:00;96975.60;;;6.61;33.80
47082;BME280;33066;49.296;14.470;2023-04-07T04:18:27;96974.10;;;6.76;33.66
47082;BME280;33066;49.296;14.470;2023-04-07T04:20:53;96971.27;;;6.69;33.68
47082;BME280;33066;49.296;14.470;2023-04-07T04:23:17;96974.33;;;6.61;33.88
47082;BME280;33066;49.296;14.470;2023-04-07T04:25:43;96975.41;;;6.73;33.92
47082;BME280;33066;49.296;14.470;2023-04-07T04:28:09;96974.85;;;6.76;33.93
47082;BME280;33066;49.296;14.470;2023-04-07T04:30:35;96972.76;;;6.64;33.84
47082;BME280;33066;49.296;14.470;2023-04-07T04:33:00;96970.63;;;6.93;33.75
47082;BME280;33066;49.296;14.470;2023-04-07T04:35:25;96965.43;;;6.51;33.65
47082;BME280;33066;49.296;14.470;2023-04-07T04:37:50;96957.76;;;6.80;33.56
47082;BME280;33066;49.296;14.470;2023-04-07T04:40:17;96954.90;;;6.83;33.43
47082;BME280;33066;49.296;14.470;2023-04-07T04:42:42;96955.72;;;6.91;33.22
47082;BME280;33066;49.296;14.470;2023-04-07T04:45:08;96955.77;;;6.87;33.22
47082;BME280;33066;49.296;14.470;2023-04-07T04:47:32;96955.77;;;7.21;33.14
47082;BME280;33066;49.296;14.470;2023-04-07T04:49:57;96955.85;;;7.02;33.14
47082;BME280;33066;49.296;14.470;2023-04-07T04:52:23;96958.60;;;7.07;32.95
47082;BME280;33066;49.296;14.470;2023-04-07T04:54:49;96961.25;;;6.87;33.01
47082;BME280;33066;49.296;14.470;2023-04-07T04:57:13;96961.37;;;7.07;33.07
47082;BME280;33066;49.296;14.470;2023-04-07T04:59:38;96964.23;;;6.80;33.16
47082;BME280;33066;49.296;14.470;2023-04-07T05:02:04;96960.64;;;6.91;33.06
47082;BME280;33066;49.296;14.470;2023-04-07T05:04:29;96963.24;;;7.20;33.13
47082;BME280;33066;49.296;14.470;2023-04-07T05:06:55;96961.90;;;7.29;33.59
47082;BME280;33066;49.296;14.470;2023-04-07T05:09:20;96961.59;;;7.56;33.38
47082;BME280;33066;49.296;14.470;2023-04-07T05:11:48;96963.09;;;7.50;33.58
47082;BME280;33066;49.296;14.470;2023-04-07T05:14:11;96964.85;;;7.06;33.66
47082;BME280;33066;49.296;14.470;2023-04-07T05:16:38;96963.64;;;7.27;33.71
47082;BME280;33066;49.296;14.470;2023-04-07T05:19:03;96963.37;;;6.58;33.93
47082;BME280;33066;49.296;14.470;2023-04-07T05:21:28;96964.27;;;7.43;34.16
47082;BME280;33066;49.296;14.470;2023-04-07T05:23:54;96963.53;;;7.29;33.67
47082;BME280;33066;49.296;14.470;2023-04-07T05:26:19;96965.23;;;7.20;33.44
47082;BME280;33066;49.296;14.470;2023-04-07T05:28:45;96964.14;;;7.12;33.50
47082;BME280;33066;49.296;14.470;2023-04-07T05:31:11;96963.63;;;7.34;33.54
47082;BME280;33066;49.296;14.470;2023-04-07T05:33:36;96962.50;;;7.26;34.00
47082;BME280;33066;49.296;14.470;2023-04-07T05:36:01;96960.60;;;7.27;33.48
47082;BME280;33066;49.296;14.470;2023-04-07T05:38:27;96957.99;;;7.37;33.99
47082;BME280;33066;49.296;14.470;2023-04-07T05:40:53;96956.26;;;7.49;33.54
47082;BME280;33066;49.296;14.470;2023-04-07T05:43:19;96955.37;;;7.80;33.36
47082;BME280;33066;49.296;14.470;2023-04-07T05:45:44;96952.46;;;7.58;33.56
47082;BME280;33066;49.296;14.470;2023-04-07T05:48:11;96954.49;;;7.85;34.35
47082;BME280;33066;49.296;14.470;2023-04-07T05:50:35;96957.10;;;7.61;34.53
47082;BME280;33066;49.296;14.470;2023-04-07T05:53:00;96956.40;;;7.64;33.35
47082;BME280;33066;49.296;14.470;2023-04-07T05:55:25;96953.23;;;7.78;33.20
47082;BME280;33066;49.296;14.470;2023-04-07T05:57:51;96951.24;;;7.94;33.34
47082;BME280;33066;49.296;14.470;2023-04-07T06:00:16;96948.04;;;7.75;33.71
47082;BME280;33066;49.296;14.470;2023-04-07T06:02:41;96948.43;;;7.45;33.72
47082;BME280;33066;49.296;14.470;2023-04-07T06:05:07;96944.96;;;7.32;33.23
47082;BME280;33066;49.296;14.470;2023-04-07T06:07:32;96948.78;;;7.60;33.16
47082;BME280;33066;49.296;14.470;2023-04-07T06:09:59;96948.20;;;7.49;33.37
47082;BME280;33066;49.296;14.470;2023-04-07T06:12:23;96947.80;;;7.44;33.59
47082;BME280;33066;49.296;14.470;2023-04-07T06:14:52;96946.64;;;7.49;33.58
47082;BME280;33066;49.296;14.470;2023-04-07T06:17:14;96944.60;;;7.60;33.09
47082;BME280;33066;49.296;14.470;2023-04-07T06:19:39;96943.10;;;7.70;33.47
47082;BME280;33066;49.296;14.470;2023-04-07T06:22:04;96941.72;;;7.82;33.54
47082;BME280;33066;49.296;14.470;2023-04-07T06:24:29;96945.03;;;7.66;33.34
47082;BME280;33066;49.296;14.470;2023-04-07T06:26:55;96945.45;;;7.85;33.15
47082;BME280;33066;49.296;14.470;2023-04-07T06:29:21;96950.53;;;7.96;33.27
47082;BME280;33066;49.296;14.470;2023-04-07T06:31:47;96953.75;;;7.75;33.25
47082;BME280;33066;49.296;14.470;2023-04-07T06:34:12;96951.23;;;8.35;33.63
47082;BME280;33066;49.296;14.470;2023-04-07T06:36:38;96947.76;;;8.51;32.77
47082;BME280;33066;49.296;14.470;2023-04-07T06:39:05;96951.65;;;8.63;32.52
47082;BME280;33066;49.296;14.470;2023-04-07T06:41:30;96955.48;;;8.71;32.54
47082;BME280;33066;49.296;14.470;2023-04-07T06:43:55;96946.76;;;8.46;32.77
47082;BME280;33066;49.296;14.470;2023-04-07T06:46:21;96945.12;;;8.54;32.48
47082;BME280;33066;49.296;14.470;2023-04-07T06:48:46;96949.35;;;8.62;32.14
47082;BME280;33066;49.296;14.470;2023-04-07T06:51:12;96949.04;;;8.63;31.71
47082;BME280;33066;49.296;14.470;2023-04-07T06:53:37;96946.62;;;8.83;31.69
47082;BME280;33066;49.296;14.470;2023-04-07T06:56:04;96945.75;;;8.70;31.39
47082;BME280;33066;49.296;14.470;2023-04-07T06:58:28;96946.60;;;8.69;31.19
47082;BME280;33066;49.296;14.470;2023-04-07T07:00:54;96944.62;;;9.04;31.13
47082;BME280;33066;49.296;14.470;2023-04-07T07:03:19;96942.74;;;9.14;31.15
47082;BME280;33066;49.296;14.470;2023-04-07T07:05:45;96943.79;;;9.04;31.47
47082;BME280;33066;49.296;14.470;2023-04-07T07:08:10;96944.10;;;9.20;31.07
47082;BME280;33066;49.296;14.470;2023-04-07T07:10:36;96950.53;;;9.47;31.13
47082;BME280;33066;49.296;14.470;2023-04-07T07:13:01;96953.37;;;9.66;30.41
47082;BME280;33066;49.296;14.470;2023-04-07T07:15:27;96954.13;;;9.45;29.66
47082;BME280;33066;49.296;14.470;2023-04-07T07:17:52;96958.44;;;9.77;29.92
47082;BME280;33066;49.296;14.470;2023-04-07T07:20:18;96958.73;;;9.55;30.32
47082;BME280;33066;49.296;14.470;2023-04-07T07:22:44;96954.45;;;9.93;30.11
47082;BME280;33066;49.296;14.470;2023-04-07T07:25:10;96949.52;;;9.77;30.12
47082;BME280;33066;49.296;14.470;2023-04-07T07:27:34;96949.60;;;9.85;29.80
47082;BME280;33066;49.296;14.470;2023-04-07T07:30:00;96950.25;;;10.00;30.99
47082;BME280;33066;49.296;14.470;2023-04-07T07:32:25;96949.42;;;9.99;30.78
47082;BME280;33066;49.296;14.470;2023-04-07T07:34:52;96949.88;;;10.45;30.29
47082;BME280;33066;49.296;14.470;2023-04-07T07:37:17;96950.82;;;10.16;30.21
47082;BME280;33066;49.296;14.470;2023-04-07T07:39:42;96950.71;;;10.53;29.21
47082;BME280;33066;49.296;14.470;2023-04-07T07:42:07;96949.85;;;10.79;29.66
47082;BME280;33066;49.296;14.470;2023-04-07T07:44:33;96948.73;;;10.77;30.63
47082;BME280;33066;49.296;14.470;2023-04-07T07:46:59;96950.41;;;10.81;30.24
47082;BME280;33066;49.296;14.470;2023-04-07T07:49:24;96949.76;;;10.72;29.90
47082;BME280;33066;49.296;14.470;2023-04-07T07:51:51;96951.42;;;10.81;29.16
47082;BME280;33066;49.296;14.470;2023-04-07T07:54:16;96947.90;;;10.83;28.86
47082;BME280;33066;49.296;14.470;2023-04-07T07:56:42;96945.41;;;10.86;28.91
47082;BME280;33066;49.296;14.470;2023-04-07T07:59:06;96943.79;;;11.17;28.78
47082;BME280;33066;49.296;14.470;2023-04-07T08:01:32;96940.24;;;11.22;28.63
47082;BME280;33066;49.296;14.470;2023-04-07T08:04:01;96938.49;;;10.90;28.68
47082;BME280;33066;49.296;14.470;2023-04-07T08:06:23;96934.74;;;11.27;28.75
47082;BME280;33066;49.296;14.470;2023-04-07T08:08:49;96936.56;;;11.38;28.53
47082;BME280;33066;49.296;14.470;2023-04-07T08:11:14;96939.10;;;11.40;28.62
47082;BME280;33066;49.296;14.470;2023-04-07T08:13:41;96940.28;;;11.90;28.56
47082;BME280;33066;49.296;14.470;2023-04-07T08:16:06;96935.18;;;11.49;28.24
47082;BME280;33066;49.296;14.470;2023-04-07T08:18:31;96934.04;;;11.89;27.95
47082;BME280;33066;49.296;14.470;2023-04-07T08:20:57;96932.21;;;12.21;27.56
47082;BME280;33066;49.296;14.470;2023-04-07T08:23:22;96925.26;;;12.13;27.63
47082;BME280;33066;49.296;14.470;2023-04-07T08:25:48;96926.33;;;12.07;27.41
47082;BME280;33066;49.296;14.470;2023-04-07T08:28:13;96925.33;;;12.42;27.17
47082;BME280;33066;49.296;14.470;2023-04-07T08:30:38;96928.76;;;12.31;27.08
47082;BME280;33066;49.296;14.470;2023-04-07T08:33:04;96930.51;;;12.41;26.71
47082;BME280;33066;49.296;14.470;2023-04-07T08:35:29;96931.17;;;12.55;26.81
47082;BME280;33066;49.296;14.470;2023-04-07T08:37:54;96930.20;;;12.58;26.33
47082;BME280;33066;49.296;14.470;2023-04-07T08:40:20;96929.30;;;12.72;26.06
47082;BME280;33066;49.296;14.470;2023-04-07T08:42:47;96927.23;;;12.45;26.32
47082;BME280;33066;49.296;14.470;2023-04-07T08:45:12;96928.90;;;12.58;25.91
47082;BME280;33066;49.296;14.470;2023-04-07T08:47:36;96927.38;;;13.11;25.58
47082;BME280;33066;49.296;14.470;2023-04-07T08:50:04;96926.65;;;12.72;25.46
47082;BME280;33066;49.296;14.470;2023-04-07T08:52:33;96925.99;;;12.82;25.24
47082;BME280;33066;49.296;14.470;2023-04-07T08:54:52;96925.84;;;13.07;25.63
47082;BME280;33066;49.296;14.470;2023-04-07T08:57:18;96928.13;;;13.30;25.31
47082;BME280;33066;49.296;14.470;2023-04-07T08:59:44;96930.64;;;13.35;24.35
47082;BME280;33066;49.296;14.470;2023-04-07T09:02:08;96922.45;;;13.40;24.25
47082;BME280;33066;49.296;14.470;2023-04-07T09:04:33;96917.10;;;13.61;24.16
47082;BME280;33066;49.296;14.470;2023-04-07T09:06:59;96916.74;;;13.80;23.93
47082;BME280;33066;49.296;14.470;2023-04-07T09:09:24;96915.15;;;13.56;23.22
47082;BME280;33066;49.296;14.470;2023-04-07T09:11:51;96916.89;;;13.61;23.45
47082;BME280;33066;49.296;14.470;2023-04-07T09:14:16;96912.38;;;13.98;23.20
47082;BME280;33066;49.296;14.470;2023-04-07T09:16:43;96908.15;;;13.65;22.95
47082;BME280;33066;49.296;14.470;2023-04-07T09:19:07;96907.21;;;14.09;23.32
47082;BME280;33066;49.296;14.470;2023-04-07T09:23:57;96907.26;;;13.82;23.02
47082;BME280;33066;49.296;14.470;2023-04-07T09:26:24;96906.30;;;13.95;23.09
47082;BME280;33066;49.296;14.470;2023-04-07T09:28:51;96903.44;;;13.36;22.89
47082;BME280;33066;49.296;14.470;2023-04-07T09:31:13;96899.65;;;13.46;23.14
47082;BME280;33066;49.296;14.470;2023-04-07T09:33:39;96897.64;;;13.46;23.34
47082;BME280;33066;49.296;14.470;2023-04-07T09:36:05;96896.33;;;13.49;23.38
47082;BME280;33066;49.296;14.470;2023-04-07T09:38:33;96893.54;;;13.99;23.34
47082;BME280;33066;49.296;14.470;2023-04-07T09:41:04;96889.79;;;13.91;23.45
47082;BME280;33066;49.296;14.470;2023-04-07T09:43:21;96887.67;;;14.13;23.54
47082;BME280;33066;49.296;14.470;2023-04-07T09:45:46;96885.23;;;13.64;23.42
47082;BME280;33066;49.296;14.470;2023-04-07T09:48:18;96882.29;;;14.05;23.42
47082;BME280;33066;49.296;14.470;2023-04-07T09:50:40;96877.95;;;14.00;23.67
47082;BME280;33066;49.296;14.470;2023-04-07T09:53:02;96875.89;;;14.15;23.50
47082;BME280;33066;49.296;14.470;2023-04-07T09:55:28;96873.28;;;14.07;23.12
47082;BME280;33066;49.296;14.470;2023-04-07T09:57:53;96872.09;;;14.35;23.19
47082;BME280;33066;49.296;14.470;2023-04-07T10:00:19;96870.19;;;14.67;22.99
47082;BME280;33066;49.296;14.470;2023-04-07T10:02:45;96867.78;;;15.05;23.11
47082;BME280;33066;49.296;14.470;2023-04-07T10:05:11;96867.73;;;15.07;22.65
47082;BME280;33066;49.296;14.470;2023-04-07T10:07:36;96864.36;;;15.08;22.19
47082;BME280;33066;49.296;14.470;2023-04-07T10:10:02;96863.60;;;15.47;21.78
47082;BME280;33066;49.296;14.470;2023-04-07T10:12:26;96860.90;;;15.34;21.67
47082;BME280;33066;49.296;14.470;2023-04-07T10:14:51;96859.24;;;15.46;21.67
47082;BME280;33066;49.296;14.470;2023-04-07T10:17:17;96859.83;;;15.51;21.30
47082;BME280;33066;49.296;14.470;2023-04-07T10:19:42;96856.02;;;15.50;20.46
47082;BME280;33066;49.296;14.470;2023-04-07T10:22:07;96847.78;;;15.89;20.18
47082;BME280;33066;49.296;14.470;2023-04-07T10:24:42;96849.05;;;15.52;20.07
47082;BME280;33066;49.296;14.470;2023-04-07T10:26:59;96848.60;;;15.76;20.15
47082;BME280;33066;49.296;14.470;2023-04-07T10:29:23;96844.01;;;15.85;20.18
47082;BME280;33066;49.296;14.470;2023-04-07T10:31:48;96842.38;;;16.00;19.55
47082;BME280;33066;49.296;14.470;2023-04-07T10:34:13;96838.18;;;16.10;19.68
47082;BME280;33066;49.296;14.470;2023-04-07T10:39:20;96826.40;;;16.83;19.06
47082;BME280;33066;49.296;14.470;2023-04-07T10:41:31;96820.03;;;17.00;18.91
47082;BME280;33066;49.296;14.470;2023-04-07T10:43:54;96823.31;;;17.43;18.97
47082;BME280;33066;49.296;14.470;2023-04-07T10:46:20;96821.40;;;17.46;18.65
47082;BME280;33066;49.296;14.470;2023-04-07T10:51:15;96814.45;;;18.46;17.82
47082;BME280;33066;49.296;14.470;2023-04-07T10:53:35;96808.31;;;19.31;17.39
47082;BME280;33066;49.296;14.470;2023-04-07T10:56:01;96804.56;;;19.14;17.36
47082;BME280;33066;49.296;14.470;2023-04-07T10:58:27;96805.28;;;18.60;17.34
47082;BME280;33066;49.296;14.470;2023-04-07T11:03:18;96809.56;;;18.76;17.34
47082;BME280;33066;49.296;14.470;2023-04-07T11:05:43;96811.84;;;18.29;17.26
47082;BME280;33066;49.296;14.470;2023-04-07T11:08:08;96813.89;;;18.29;17.06
47082;BME280;33066;49.296;14.470;2023-04-07T11:10:34;96805.78;;;18.82;17.24
47082;BME280;33066;49.296;14.470;2023-04-07T11:13:02;96806.57;;;18.99;17.45
47082;BME280;33066;49.296;14.470;2023-04-07T11:15:24;96804.22;;;18.61;16.89
47082;BME280;33066;49.296;14.470;2023-04-07T11:20:15;96798.56;;;18.21;17.75
47082;BME280;33066;49.296;14.470;2023-04-07T11:22:40;96805.03;;;18.13;17.69
47082;BME280;33066;49.296;14.470;2023-04-07T11:25:19;96804.65;;;18.37;16.95
47082;BME280;33066;49.296;14.470;2023-04-07T11:27:32;96805.13;;;18.53;16.72
47082;BME280;33066;49.296;14.470;2023-04-07T11:29:57;96800.80;;;18.68;16.32
47082;BME280;33066;49.296;14.470;2023-04-07T11:32:22;96804.76;;;18.65;16.47
47082;BME280;33066;49.296;14.470;2023-04-07T11:34:47;96802.79;;;18.85;16.50
47082;BME280;33066;49.296;14.470;2023-04-07T11:37:18;96798.81;;;18.67;16.75
47082;BME280;33066;49.296;14.470;2023-04-07T11:39:39;96798.46;;;19.00;16.51
47082;BME280;33066;49.296;14.470;2023-04-07T11:42:04;96796.47;;;19.13;16.49
47082;BME280;33066;49.296;14.470;2023-04-07T11:44:29;96793.67;;;19.40;15.91
47082;BME280;33066;49.296;14.470;2023-04-07T11:46:56;96792.98;;;19.19;16.08
47082;BME280;33066;49.296;14.470;2023-04-07T11:49:20;96799.28;;;19.54;16.28
47082;BME280;33066;49.296;14.470;2023-04-07T11:51:46;96788.53;;;20.22;15.77
47082;BME280;33066;49.296;14.470;2023-04-07T11:54:12;96784.79;;;20.50;15.72
47082;BME280;33066;49.296;14.470;2023-04-07T11:56:43;96779.17;;;20.74;15.91
47082;BME280;33066;49.296;14.470;2023-04-07T11:59:03;96780.40;;;21.01;15.28
47082;BME280;33066;49.296;14.470;2023-04-07T12:01:39;96773.21;;;20.68;16.00
47082;BME280;33066;49.296;14.470;2023-04-07T12:03:56;96791.07;;;20.24;17.05
47082;BME280;33066;49.296;14.470;2023-04-07T12:06:26;96787.31;;;19.74;17.23
47082;BME280;33066;49.296;14.470;2023-04-07T12:08:45;96784.39;;;20.00;17.04
47082;BME280;33066;49.296;14.470;2023-04-07T12:11:11;96782.93;;;19.92;16.94
47082;BME280;33066;49.296;14.470;2023-04-07T12:13:37;96782.83;;;19.50;17.55
47082;BME280;33066;49.296;14.470;2023-04-07T12:16:03;96785.61;;;18.87;17.91
47082;BME280;33066;49.296;14.470;2023-04-07T12:18:28;96785.30;;;18.50;18.47
47082;BME280;33066;49.296;14.470;2023-04-07T12:20:53;96788.30;;;18.42;18.77
47082;BME280;33066;49.296;14.470;2023-04-07T12:23:18;96790.68;;;18.33;19.40
47082;BME280;33066;49.296;14.470;2023-04-07T12:25:43;96790.14;;;18.31;19.29
47082;BME280;33066;49.296;14.470;2023-04-07T12:28:08;96785.39;;;18.53;19.61
47082;BME280;33066;49.296;14.470;2023-04-07T12:30:34;96784.83;;;18.45;18.60
47082;BME280;33066;49.296;14.470;2023-04-07T12:32:59;96789.66;;;18.15;19.26
47082;BME280;33066;49.296;14.470;2023-04-07T12:35:25;96785.31;;;18.03;19.00
47082;BME280;33066;49.296;14.470;2023-04-07T12:37:50;96781.85;;;18.18;19.40
47082;BME280;33066;49.296;14.470;2023-04-07T12:40:16;96781.29;;;17.92;18.97
47082;BME280;33066;49.296;14.470;2023-04-07T12:42:41;96782.42;;;17.70;19.50
47082;BME280;33066;49.296;14.470;2023-04-07T12:45:07;96787.40;;;17.88;19.66
47082;BME280;33066;49.296;14.470;2023-04-07T12:47:31;96785.71;;;17.54;19.25
47082;BME280;33066;49.296;14.470;2023-04-07T12:49:56;96787.50;;;17.31;20.01
47082;BME280;33066;49.296;14.470;2023-04-07T12:52:22;96785.54;;;17.30;20.49
47082;BME280;33066;49.296;14.470;2023-04-07T12:54:48;96787.36;;;17.29;20.18
47082;BME280;33066;49.296;14.470;2023-04-07T12:57:13;96788.49;;;17.32;20.12
47082;BME280;33066;49.296;14.470;2023-04-07T12:59:39;96788.25;;;17.35;19.96
47082;BME280;33066;49.296;14.470;2023-04-07T13:02:04;96789.37;;;17.45;19.82